Time;durP1;ratioP1;P1;durP2;ratioP2;P2;SDS_P1;SDS_P2;PMS_P1;PMS_P2;Temp;Humidity;BMP_temperature;BMP_pressure;BME280_temperature;BME280_humidity;BME280_pressure;Samples;Min_cycle;Max_cycle;Signal;HPM_P1;HPM_P2
2023/05/05 00:00:50;;;;;;;;;;;;;;;19.76;62.19;99119.28;2056768;28;20025;-47
2023/05/05 00:01:52;;;;;;;;;;;;;;;19.77;62.43;99123.63;2056130;28;20017;-49
2023/05/05 00:02:52;;;;;;;;;;;;;;;19.79;62.43;99116.19;2055320;28;19929;-48
2023/05/05 00:03:54;;;;;;;;;;;;;;;19.79;62.01;99124.28;2055608;28;19985;-45
2023/05/05 00:04:56;;;;;;;;;;;;;;;19.75;62.34;99123.03;2054449;28;20961;-46
2023/05/05 00:05:57;;;;;;;;;;;;;;;19.73;62.22;99124.25;2055236;28;19926;-47
2023/05/05 00:06:58;;;;;;;;;;;;;;;19.73;62.40;99116.19;2057188;28;20454;-48
2023/05/05 00:08:00;;;;;;;;;;;;;;;19.74;62.53;99117.81;2054811;28;19933;-46
2023/05/05 00:09:00;;;;;;;;;;;;;;;19.76;62.18;99118.47;2058755;28;19926;-46
2023/05/05 00:10:02;;;;;;;;;;;;;;;19.74;62.58;99121.34;2057698;28;20278;-47
2023/05/05 00:11:03;;;;;;;;;;;;;;;19.73;62.68;99119.69;2057016;28;19926;-48
2023/05/05 00:12:06;;;;;;;;;;;;;;;19.76;62.28;99118.47;2054823;28;19934;-44
2023/05/05 00:13:07;;;;;;;;;;;;;;;19.79;62.10;99112.69;2054339;28;19987;-48
2023/05/05 00:14:08;;;;;;;;;;;;;;;19.77;62.52;99115.56;2055046;28;20130;-47
2023/05/05 00:15:09;;;;;;;;;;;;;;;19.75;62.30;99111.41;2055931;28;19929;-47
2023/05/05 00:16:11;;;;;;;;;;;;;;;19.77;62.08;99115.56;2054850;28;19973;-45
2023/05/05 00:17:11;;;;;;;;;;;;;;;19.73;62.28;99105.41;2053661;28;20334;-48
2023/05/05 00:18:14;;;;;;;;;;;;;;;19.73;62.46;99111.63;2054442;28;19933;-47
2023/05/05 00:19:15;;;;;;;;;;;;;;;19.74;62.37;99110.56;2055364;28;19941;-48
2023/05/05 00:20:17;;;;;;;;;;;;;;;19.75;62.29;99106.88;2055836;28;19938;-49
2023/05/05 00:21:18;;;;;;;;;;;;;;;19.73;62.17;99106.22;2054351;28;19938;-47
2023/05/05 00:22:20;;;;;;;;;;;;;;;19.73;62.45;99108.94;2056345;28;19930;-48
2023/05/05 00:23:21;;;;;;;;;;;;;;;19.74;62.29;99102.50;2054933;28;19976;-47
2023/05/05 00:24:22;;;;;;;;;;;;;;;19.73;62.04;99103.53;2055869;28;20371;-47
2023/05/05 00:25:23;;;;;;;;;;;;;;;19.73;61.98;99106.22;2054296;28;19930;-45
2023/05/05 00:26:24;;;;;;;;;;;;;;;19.72;62.33;99101.03;2055381;28;19934;-44
2023/05/05 00:27:57;;;;;;;;;;;;;;;19.69;62.60;99104.97;2056512;28;19954;-47
2023/05/05 00:29:01;;;;;;;;;;;;;;;19.69;62.44;99102.25;2054619;28;19980;-47
2023/05/05 00:30:17;;;;;;;;;;;;;;;19.71;62.57;99108.28;2056374;28;19930;-48
2023/05/05 00:31:19;;;;;;;;;;;;;;;19.72;62.55;99101.88;2053193;28;19993;-49
2023/05/05 00:32:19;;;;;;;;;;;;;;;19.70;62.28;99103.94;2054011;28;19926;-47
2023/05/05 00:33:20;;;;;;;;;;;;;;;19.65;62.68;99103.66;2055113;28;20390;-46
2023/05/05 00:34:21;;;;;;;;;;;;;;;19.61;62.93;99099.69;2055443;28;19930;-45
2023/05/05 00:35:23;;;;;;;;;;;;;;;19.62;62.69;99101.38;2055687;28;20360;-47
2023/05/05 00:36:23;;;;;;;;;;;;;;;19.67;62.64;99098.97;2054873;28;19980;-46
2023/05/05 00:37:25;;;;;;;;;;;;;;;19.69;62.42;99102.25;2053252;28;19996;-45
2023/05/05 00:38:26;;;;;;;;;;;;;;;19.73;62.65;99102.72;2054456;28;20296;-47
2023/05/05 00:39:27;;;;;;;;;;;;;;;19.72;62.40;99095.66;2055845;28;19930;-48
2023/05/05 00:40:28;;;;;;;;;;;;;;;19.68;62.40;99103.31;2054807;28;19934;-47
2023/05/05 00:41:29;;;;;;;;;;;;;;;19.65;62.91;99103.66;2054496;28;20684;-49
2023/05/05 00:42:36;;;;;;;;;;;;;;;19.60;62.78;99101.56;2056088;28;20045;-47
2023/05/05 00:43:38;;;;;;;;;;;;;;;19.58;62.93;99105.47;2055741;28;20387;-45
2023/05/05 00:44:41;;;;;;;;;;;;;;;19.57;62.95;99099.28;2055897;28;20426;-46
2023/05/05 00:45:46;;;;;;;;;;;;;;;19.57;62.95;99098.44;2056861;28;19926;-47
2023/05/05 00:46:46;;;;;;;;;;;;;;;19.58;62.84;99100.09;2054503;28;19933;-49
2023/05/05 00:47:48;;;;;;;;;;;;;;;19.59;62.88;99105.31;2055637;28;20017;-48
2023/05/05 00:48:49;;;;;;;;;;;;;;;19.59;63.13;99101.78;2053053;28;19934;-48
2023/05/05 00:49:51;;;;;;;;;;;;;;;19.59;62.90;99099.91;2053822;28;19930;-48
2023/05/05 00:50:51;;;;;;;;;;;;;;;19.59;62.88;99099.09;2054154;28;21994;-48
2023/05/05 00:51:52;;;;;;;;;;;;;;;19.58;63.15;99106.31;2055041;28;19937;-47
2023/05/05 00:52:55;;;;;;;;;;;;;;;19.59;62.76;99099.09;2055271;28;19930;-47
2023/05/05 00:53:56;;;;;;;;;;;;;;;19.58;62.72;99105.47;2055877;28;19973;-50
2023/05/05 00:54:57;;;;;;;;;;;;;;;19.59;63.05;99101.78;2057187;28;19933;-50
2023/05/05 00:55:58;;;;;;;;;;;;;;;19.56;63.05;99108.38;2055131;28;19927;-52
2023/05/05 00:56:59;;;;;;;;;;;;;;;19.57;62.91;99101.16;2056665;28;20411;-48
2023/05/05 00:58:01;;;;;;;;;;;;;;;19.58;62.67;99100.09;2054389;28;19966;-48
2023/05/05 00:59:03;;;;;;;;;;;;;;;19.57;62.76;99106.53;2054635;28;19936;-48
2023/05/05 01:00:08;;;;;;;;;;;;;;;19.55;63.09;99106.72;2054776;28;19926;-48
2023/05/05 01:01:10;;;;;;;;;;;;;;;19.56;62.92;99096.81;2052908;28;19930;-49
2023/05/05 01:02:11;;;;;;;;;;;;;;;19.55;62.96;99101.31;2053174;28;19933;-50
2023/05/05 01:03:14;;;;;;;;;;;;;;;19.56;63.15;99105.69;2053612;28;20320;-47
2023/05/05 01:04:15;;;;;;;;;;;;;;;19.55;63.08;99095.13;2054470;28;20277;-47
2023/05/05 01:05:16;;;;;;;;;;;;;;;19.55;62.81;99098.63;2054381;28;19962;-50
2023/05/05 01:06:24;;;;;;;;;;;;;;;19.56;62.83;99096.81;2053895;28;19929;-53
2023/05/05 01:07:31;;;;;;;;;;;;;;;19.56;63.09;99099.50;2053919;28;19926;-47
2023/05/05 01:08:41;;;;;;;;;;;;;;;19.56;63.00;99096.81;2053300;28;20440;-47
2023/05/05 01:09:47;;;;;;;;;;;;;;;19.56;63.04;99097.63;2054278;28;19930;-47
2023/05/05 01:10:53;;;;;;;;;;;;;;;19.54;63.00;99097.00;2054492;28;19981;-51
2023/05/05 01:11:59;;;;;;;;;;;;;;;19.55;63.15;99095.94;2054346;28;19937;-48
2023/05/05 01:13:05;;;;;;;;;;;;;;;19.55;63.15;99092.44;2055837;28;19972;-50
2023/05/05 01:14:11;;;;;;;;;;;;;;;19.54;62.78;99099.69;2054772;28;20368;-49
2023/05/05 01:15:16;;;;;;;;;;;;;;;19.53;62.84;99095.34;2054962;28;19930;-47
2023/05/05 01:16:18;;;;;;;;;;;;;;;19.54;62.97;99093.47;2052928;28;20404;-46
2023/05/05 01:17:21;;;;;;;;;;;;;;;19.54;63.05;99099.69;2051845;28;20418;-49
2023/05/05 01:18:28;;;;;;;;;;;;;;;19.55;62.84;99097.81;2047635;28;20478;-47
2023/05/05 01:19:45;;;;;;;;;;;;;;;19.54;62.79;99094.28;2054636;28;20495;-47
2023/05/05 01:20:48;;;;;;;;;;;;;;;19.53;63.01;99092.66;2056305;28;19984;-46
2023/05/05 01:23:37;;;;;;;;;;;;;;;19.54;62.97;99090.78;2055048;28;19934;-46
2023/05/05 01:24:43;;;;;;;;;;;;;;;19.54;63.09;99093.47;2054896;28;19944;-45
2023/05/05 01:26:14;;;;;;;;;;;;;;;19.53;62.94;99099.88;2053194;28;20014;-45
2023/05/05 01:27:43;;;;;;;;;;;;;;;19.53;63.10;99091.78;2053203;28;19930;-46
2023/05/05 01:28:55;;;;;;;;;;;;;;;19.54;62.75;99096.16;2053827;28;19933;-45
2023/05/05 01:30:07;;;;;;;;;;;;;;;19.53;62.96;99098.03;2054109;28;19926;-48
2023/05/05 01:31:19;;;;;;;;;;;;;;;19.54;62.67;99101.53;2053511;28;19969;-52
2023/05/05 01:32:23;;;;;;;;;;;;;;;19.51;63.17;99097.38;2057844;28;19926;-49
2023/05/05 01:33:27;;;;;;;;;;;;;;;19.52;63.07;99098.22;2055434;28;19988;-50
2023/05/05 01:34:31;;;;;;;;;;;;;;;19.52;62.94;99096.34;2054339;28;20509;-54
2023/05/05 01:35:37;;;;;;;;;;;;;;;19.52;63.06;99096.34;2053926;28;19925;-46
2023/05/05 01:36:41;;;;;;;;;;;;;;;19.51;62.96;99092.00;2054722;28;19989;-48
2023/05/05 01:37:46;;;;;;;;;;;;;;;19.50;63.06;99097.56;2053609;28;19936;-47
2023/05/05 01:38:48;;;;;;;;;;;;;;;19.52;62.79;99090.13;2055079;28;20503;-47
2023/05/05 01:39:53;;;;;;;;;;;;;;;19.51;63.19;99100.06;2052346;28;19933;-47
2023/05/05 01:40:56;;;;;;;;;;;;;;;19.51;62.99;99096.56;2053918;28;20289;-48
2023/05/05 01:42:01;;;;;;;;;;;;;;;19.51;62.65;99101.94;2053292;28;19930;-48
2023/05/05 01:43:02;;;;;;;;;;;;;;;19.50;63.00;99101.13;2054529;28;19945;-50
2023/05/05 01:44:06;;;;;;;;;;;;;;;19.50;62.92;99093.03;2054320;28;19926;-50
2023/05/05 01:45:08;;;;;;;;;;;;;;;19.50;62.83;99093.03;2055470;28;20525;-53
2023/05/05 01:46:10;;;;;;;;;;;;;;;19.49;63.09;99090.53;2057620;28;19926;-45
2023/05/05 01:47:12;;;;;;;;;;;;;;;19.50;62.92;99097.56;2056901;28;19984;-48
2023/05/05 01:48:17;;;;;;;;;;;;;;;19.50;62.99;99101.13;2056493;28;19926;-46
2023/05/05 01:49:18;;;;;;;;;;;;;;;19.49;63.03;99088.69;2055196;28;20058;-51
2023/05/05 01:50:20;;;;;;;;;;;;;;;19.49;63.15;99096.75;2055861;28;19958;-46
2023/05/05 01:51:22;;;;;;;;;;;;;;;19.49;62.68;99095.91;2056596;28;20393;-51
2023/05/05 01:52:24;;;;;;;;;;;;;;;19.49;62.63;99095.91;2056640;28;19933;-50
2023/05/05 01:53:26;;;;;;;;;;;;;;;19.49;62.73;99098.63;2056186;28;20617;-45
2023/05/05 01:54:28;;;;;;;;;;;;;;;19.48;62.70;99092.41;2057063;28;19964;-49
2023/05/05 01:55:30;;;;;;;;;;;;;;;19.49;62.93;99095.91;2056461;28;20355;-49
2023/05/05 01:56:32;;;;;;;;;;;;;;;19.48;62.96;99095.09;2054874;28;20016;-48
2023/05/05 01:57:32;;;;;;;;;;;;;;;19.49;62.58;99110.19;2055811;28;19945;-54
2023/05/05 01:58:34;;;;;;;;;;;;;;;19.47;62.89;99100.66;2058301;28;20440;-50
2023/05/05 01:59:35;;;;;;;;;;;;;;;19.47;62.76;99100.66;2055520;28;19983;-51
2023/05/05 02:00:38;;;;;;;;;;;;;;;19.47;62.96;99100.66;2055548;28;20527;-50
2023/05/05 02:01:40;;;;;;;;;;;;;;;19.47;62.75;99103.34;2056252;28;19976;-51
2023/05/05 02:02:42;;;;;;;;;;;;;;;19.48;62.83;99091.59;2056230;28;19941;-45
2023/05/05 02:03:45;;;;;;;;;;;;;;;19.47;63.03;99098.78;2057007;28;19933;-48
2023/05/05 02:04:48;;;;;;;;;;;;;;;19.47;62.98;99096.09;2055935;28;19934;-49
2023/05/05 02:05:50;;;;;;;;;;;;;;;19.48;62.77;99096.97;2057112;28;19928;-52
2023/05/05 02:06:52;;;;;;;;;;;;;;;19.47;62.78;99095.28;2056947;28;20433;-48
2023/05/05 02:07:55;;;;;;;;;;;;;;;19.48;62.63;99097.78;2054795;28;20041;-45
2023/05/05 02:09:01;;;;;;;;;;;;;;;19.48;62.84;99096.97;2056260;28;19981;-51
2023/05/05 02:10:02;;;;;;;;;;;;;;;19.46;62.60;99099.84;2055556;28;19934;-50
2023/05/05 02:11:04;;;;;;;;;;;;;;;19.48;62.89;99094.28;2056365;28;19957;-49
2023/05/05 02:12:05;;;;;;;;;;;;;;;19.47;62.85;99095.28;2056253;28;20423;-49
2023/05/05 02:13:08;;;;;;;;;;;;;;;19.47;62.65;99100.66;2055947;28;19930;-47
2023/05/05 02:14:09;;;;;;;;;;;;;;;19.46;62.57;99094.47;2056268;28;20669;-50
2023/05/05 02:15:11;;;;;;;;;;;;;;;19.47;62.56;99096.09;2058525;28;19933;-52
2023/05/05 02:16:12;;;;;;;;;;;;;;;19.46;62.79;99101.69;2058134;28;19976;-50
2023/05/05 02:17:15;;;;;;;;;;;;;;;19.45;62.79;99097.34;2058427;28;19930;-53
2023/05/05 02:18:16;;;;;;;;;;;;;;;19.45;62.77;99100.06;2056203;28;19953;-46
2023/05/05 02:19:21;;;;;;;;;;;;;;;19.43;62.89;99098.38;2056821;28;19941;-51
2023/05/05 02:20:23;;;;;;;;;;;;;;;19.45;62.61;99097.34;2054611;28;19985;-47
2023/05/05 02:21:24;;;;;;;;;;;;;;;19.45;62.60;99097.34;2055329;28;20404;-49
2023/05/05 02:22:25;;;;;;;;;;;;;;;19.45;62.51;99097.34;2056689;28;19929;-46
2023/05/05 02:23:26;;;;;;;;;;;;;;;19.45;62.62;99094.66;2055719;28;19926;-46
2023/05/05 02:24:27;;;;;;;;;;;;;;;19.45;62.88;99094.66;2054976;28;19930;-48
2023/05/05 02:25:32;;;;;;;;;;;;;;;19.43;62.80;99093.00;2055401;28;19975;-46
2023/05/05 02:26:34;;;;;;;;;;;;;;;19.43;62.64;99093.00;2055571;28;20507;-45
2023/05/05 02:27:37;;;;;;;;;;;;;;;19.45;62.53;99089.28;2055291;28;19930;-47
2023/05/05 02:28:39;;;;;;;;;;;;;;;19.43;62.79;99087.59;2054868;28;19930;-46
2023/05/05 02:29:44;;;;;;;;;;;;;;;19.42;62.74;99085.13;2055093;28;20029;-48
2023/05/05 02:30:48;;;;;;;;;;;;;;;19.42;62.52;99080.59;2055728;28;19926;-46
2023/05/05 02:31:50;;;;;;;;;;;;;;;19.42;62.62;99085.13;2055581;28;20498;-45
2023/05/05 02:32:54;;;;;;;;;;;;;;;19.42;62.97;99087.81;2055301;28;19930;-47
2023/05/05 02:33:57;;;;;;;;;;;;;;;19.42;62.53;99083.28;2057248;28;20012;-46
2023/05/05 02:35:03;;;;;;;;;;;;;;;19.42;62.75;99080.59;2055084;28;19930;-48
2023/05/05 02:36:07;;;;;;;;;;;;;;;19.46;62.62;99082.88;2053298;28;19949;-47
2023/05/05 02:37:11;;;;;;;;;;;;;;;19.45;62.45;99081.22;2054203;28;20296;-46
2023/05/05 02:38:13;;;;;;;;;;;;;;;19.42;62.64;99083.28;2054851;28;20339;-51
2023/05/05 02:39:20;;;;;;;;;;;;;;;19.42;62.66;99085.97;2055533;28;19936;-48
2023/05/05 02:40:22;;;;;;;;;;;;;;;19.42;62.39;99080.59;2054943;28;20348;-52
2023/05/05 02:41:25;;;;;;;;;;;;;;;19.42;62.55;99079.75;2055494;28;19936;-50
2023/05/05 02:42:28;;;;;;;;;;;;;;;19.42;62.52;99082.44;2055870;28;20333;-50
2023/05/05 02:43:31;;;;;;;;;;;;;;;19.41;62.52;99084.28;2056324;28;20009;-51
2023/05/05 02:44:33;;;;;;;;;;;;;;;19.41;62.87;99084.28;2056817;28;20038;-50
2023/05/05 02:45:35;;;;;;;;;;;;;;;19.42;62.62;99077.06;2051349;28;20335;-49
2023/05/05 02:46:36;;;;;;;;;;;;;;;19.40;62.79;99079.94;2056050;28;20395;-47
2023/05/05 02:47:38;;;;;;;;;;;;;;;19.39;62.72;99083.66;2053893;28;19930;-51
2023/05/05 02:48:39;;;;;;;;;;;;;;;19.40;62.68;99082.63;2053679;28;19934;-48
2023/05/05 02:49:40;;;;;;;;;;;;;;;19.40;62.36;99082.63;2053260;28;20340;-48
2023/05/05 02:50:42;;;;;;;;;;;;;;;19.42;62.73;99079.75;2050208;28;20368;-50
2023/05/05 02:51:43;;;;;;;;;;;;;;;19.38;62.72;99073.91;2056191;28;19926;-49
2023/05/05 02:52:44;;;;;;;;;;;;;;;19.39;62.79;99072.91;2054970;28;20029;-45
2023/05/05 02:53:46;;;;;;;;;;;;;;;19.43;62.66;99082.22;2056471;28;19933;-51
2023/05/05 02:54:46;;;;;;;;;;;;;;;19.44;62.43;99074.97;2054402;28;19973;-46
2023/05/05 02:55:51;;;;;;;;;;;;;;;19.45;62.04;99073.97;2055576;28;20359;-53
2023/05/05 02:56:52;;;;;;;;;;;;;;;19.43;62.24;99081.41;2053658;28;19930;-49
2023/05/05 02:58:00;;;;;;;;;;;;;;;19.40;62.55;99077.25;2055273;28;19970;-51
2023/05/05 02:59:05;;;;;;;;;;;;;;;19.40;62.64;99068.34;2057265;28;19979;-46
2023/05/05 03:00:09;;;;;;;;;;;;;;;19.41;62.54;99072.69;2055220;28;20442;-53
2023/05/05 03:01:12;;;;;;;;;;;;;;;19.40;62.47;99071.88;2055161;28;19926;-53
2023/05/05 03:02:16;;;;;;;;;;;;;;;19.41;62.57;99073.50;2054877;28;19973;-46
2023/05/05 03:03:17;;;;;;;;;;;;;;;19.40;62.72;99074.56;2055707;28;19926;-47
2023/05/05 03:04:21;;;;;;;;;;;;;;;19.40;62.29;99077.25;2054728;28;19937;-48
2023/05/05 03:05:24;;;;;;;;;;;;;;;19.39;62.63;99072.91;2057301;28;20274;-51
2023/05/05 03:06:28;;;;;;;;;;;;;;;19.40;62.35;99073.72;2055587;28;20713;-47
2023/05/05 03:07:30;;;;;;;;;;;;;;;19.40;62.72;99071.88;2054009;28;19930;-50
2023/05/05 03:08:40;;;;;;;;;;;;;;;19.38;62.52;99073.91;2054432;28;19933;-49
2023/05/05 03:09:42;;;;;;;;;;;;;;;19.39;62.62;99074.78;2055150;28;20300;-51
2023/05/05 03:10:46;;;;;;;;;;;;;;;19.39;62.23;99075.59;2057149;28;19930;-47
2023/05/05 03:11:48;;;;;;;;;;;;;;;19.40;62.43;99074.56;2056324;28;19991;-47
2023/05/05 03:12:52;;;;;;;;;;;;;;;19.40;62.60;99073.72;2054409;28;19930;-48
2023/05/05 03:13:59;;;;;;;;;;;;;;;19.38;62.59;99073.91;2054772;28;19957;-49
2023/05/05 03:15:01;;;;;;;;;;;;;;;19.38;62.16;99071.22;2053459;28;19930;-48
2023/05/05 03:16:05;;;;;;;;;;;;;;;19.38;62.16;99071.22;2055134;28;19960;-47
2023/05/05 03:17:07;;;;;;;;;;;;;;;19.38;62.30;99068.53;2053470;28;19930;-47
2023/05/05 03:18:09;;;;;;;;;;;;;;;19.40;62.18;99071.03;2055378;28;19930;-47
2023/05/05 03:19:11;;;;;;;;;;;;;;;19.39;62.55;99075.59;2055829;28;19934;-47
2023/05/05 03:20:13;;;;;;;;;;;;;;;19.37;62.46;99077.66;2054993;28;19926;-47
2023/05/05 03:21:15;;;;;;;;;;;;;;;19.37;62.62;99071.44;2055193;28;19930;-51
2023/05/05 03:22:16;;;;;;;;;;;;;;;19.37;62.51;99074.97;2054231;28;19989;-47
2023/05/05 03:23:19;;;;;;;;;;;;;;;19.37;62.28;99074.97;2055606;28;19930;-46
2023/05/05 03:24:20;;;;;;;;;;;;;;;19.38;62.34;99070.41;2054289;28;19953;-47
2023/05/05 03:25:22;;;;;;;;;;;;;;;19.38;62.56;99070.41;2054632;28;19929;-49
2023/05/05 03:26:23;;;;;;;;;;;;;;;19.39;62.54;99077.47;2056346;28;19926;-46
2023/05/05 03:27:24;;;;;;;;;;;;;;;19.37;62.63;99074.13;2054130;28;20012;-49
2023/05/05 03:28:25;;;;;;;;;;;;;;;19.36;62.27;99076.00;2054613;28;19926;-48
2023/05/05 03:29:28;;;;;;;;;;;;;;;19.36;62.44;99070.63;2054486;28;20003;-56
2023/05/05 03:30:28;;;;;;;;;;;;;;;19.37;62.54;99072.25;2054507;28;19930;-47
2023/05/05 03:31:30;;;;;;;;;;;;;;;19.36;62.59;99070.63;2042972;28;21476;-47
2023/05/05 03:32:30;;;;;;;;;;;;;;;19.35;62.14;99063.56;2053168;28;19942;-47
2023/05/05 03:33:32;;;;;;;;;;;;;;;19.35;62.62;99068.94;2054720;28;20499;-49
2023/05/05 03:34:34;;;;;;;;;;;;;;;19.35;62.60;99068.09;2053823;28;19934;-50
2023/05/05 03:35:36;;;;;;;;;;;;;;;19.36;62.58;99064.38;2053783;28;19943;-48
2023/05/05 03:36:38;;;;;;;;;;;;;;;19.35;62.46;99068.94;2051434;28;19980;-48
2023/05/05 03:37:39;;;;;;;;;;;;;;;19.35;62.43;99071.63;2056059;28;19930;-47
2023/05/05 03:38:41;;;;;;;;;;;;;;;19.36;62.52;99069.75;2055744;28;19933;-50
2023/05/05 03:39:41;;;;;;;;;;;;;;;19.37;62.45;99072.25;2055777;28;19930;-49
2023/05/05 03:40:43;;;;;;;;;;;;;;;19.35;62.47;99066.25;2054719;28;21539;-48
2023/05/05 03:41:43;;;;;;;;;;;;;;;19.34;62.36;99067.28;2054833;28;20470;-49
2023/05/05 03:42:45;;;;;;;;;;;;;;;19.35;62.28;99076.19;2054190;28;19973;-49
2023/05/05 03:43:45;;;;;;;;;;;;;;;19.34;62.37;99071.84;2055259;28;19930;-48
2023/05/05 03:44:48;;;;;;;;;;;;;;;19.34;62.51;99075.34;2054305;28;19942;-49
2023/05/05 03:45:49;;;;;;;;;;;;;;;19.34;62.47;99077.22;2054879;28;20044;-47
2023/05/05 03:46:50;;;;;;;;;;;;;;;19.35;62.39;99073.50;2055415;28;20002;-47
2023/05/05 03:47:51;;;;;;;;;;;;;;;19.35;62.31;99079.69;2052463;28;20010;-49
2023/05/05 03:48:52;;;;;;;;;;;;;;;19.35;62.33;99077.00;2054415;28;19933;-47
2023/05/05 03:49:53;;;;;;;;;;;;;;;19.35;62.39;99074.31;2055503;28;19937;-48
2023/05/05 03:50:54;;;;;;;;;;;;;;;19.34;62.42;99077.22;2056207;28;19934;-48
2023/05/05 03:51:55;;;;;;;;;;;;;;;19.35;62.08;99076.19;2056287;28;19934;-48
2023/05/05 03:52:57;;;;;;;;;;;;;;;19.34;62.35;99074.53;2055409;28;19934;-51
2023/05/05 03:53:58;;;;;;;;;;;;;;;19.33;62.29;99070.97;2056246;28;21106;-50
2023/05/05 03:54:59;;;;;;;;;;;;;;;19.32;62.15;99073.88;2055069;28;19938;-51
2023/05/05 03:56:00;;;;;;;;;;;;;;;19.30;62.56;99068.69;2057221;28;19945;-51
2023/05/05 03:57:02;;;;;;;;;;;;;;;19.32;62.24;99069.34;2054142;28;20030;-50
2023/05/05 03:58:03;;;;;;;;;;;;;;;19.32;61.98;99072.03;2054720;28;19934;-50
2023/05/05 03:59:05;;;;;;;;;;;;;;;19.31;62.42;99067.69;2054201;28;19941;-49
2023/05/05 04:00:10;;;;;;;;;;;;;;;19.32;62.40;99068.50;2055536;28;20001;-48
2023/05/05 04:01:12;;;;;;;;;;;;;;;19.32;62.30;99072.03;2054032;28;19932;-50
2023/05/05 04:02:12;;;;;;;;;;;;;;;19.30;62.27;99068.69;2053684;28;20001;-47
2023/05/05 04:03:13;;;;;;;;;;;;;;;19.31;62.37;99067.69;2055747;28;20348;-48
2023/05/05 04:04:14;;;;;;;;;;;;;;;19.30;62.07;99062.50;2056049;28;19926;-50
2023/05/05 04:05:15;;;;;;;;;;;;;;;19.28;62.28;99057.31;2054954;28;20358;-50
2023/05/05 04:06:16;;;;;;;;;;;;;;;19.29;62.39;99058.97;2054567;28;20552;-50
2023/05/05 04:07:17;;;;;;;;;;;;;;;19.30;62.08;99057.94;2052099;28;20016;-48
2023/05/05 04:08:19;;;;;;;;;;;;;;;19.30;62.07;99057.94;2054595;28;19945;-47
2023/05/05 04:09:21;;;;;;;;;;;;;;;19.29;62.37;99050.91;2053776;28;19930;-49
2023/05/05 04:10:21;;;;;;;;;;;;;;;19.29;62.33;99058.97;2054335;28;20344;-48
2023/05/05 04:11:23;;;;;;;;;;;;;;;19.31;62.12;99056.94;2056275;28;19938;-48
2023/05/05 04:12:23;;;;;;;;;;;;;;;19.30;62.34;99057.94;2054882;28;19938;-50
2023/05/05 04:13:25;;;;;;;;;;;;;;;19.31;62.39;99059.63;2057073;28;20391;-50
2023/05/05 04:14:25;;;;;;;;;;;;;;;19.31;62.23;99059.63;2054311;28;19933;-48
2023/05/05 04:15:27;;;;;;;;;;;;;;;19.31;62.34;99058.78;2056759;28;19930;-56
2023/05/05 04:16:27;;;;;;;;;;;;;;;19.29;62.11;99064.34;2055138;28;19936;-48
2023/05/05 04:17:28;;;;;;;;;;;;;;;19.28;62.11;99062.69;2053481;28;20965;-47
2023/05/05 04:18:30;;;;;;;;;;;;;;;19.29;62.13;99069.72;2052908;28;20367;-48
2023/05/05 04:19:32;;;;;;;;;;;;;;;19.29;62.35;99058.97;2054226;28;20016;-48
2023/05/05 04:20:33;;;;;;;;;;;;;;;19.28;62.26;99062.69;2054603;28;19930;-49
2023/05/05 04:21:35;;;;;;;;;;;;;;;19.27;62.16;99063.72;2055002;28;19930;-49
2023/05/05 04:22:35;;;;;;;;;;;;;;;19.29;62.32;99063.53;2053490;28;19934;-49
2023/05/05 04:23:38;;;;;;;;;;;;;;;19.29;61.99;99064.34;2056356;28;19930;-48
2023/05/05 04:24:38;;;;;;;;;;;;;;;19.28;62.45;99062.69;2054053;28;19930;-47
2023/05/05 04:25:40;;;;;;;;;;;;;;;19.26;62.34;99054.00;2055266;28;19996;-48
2023/05/05 04:26:41;;;;;;;;;;;;;;;19.25;62.21;99056.88;2053144;28;20338;-52
2023/05/05 04:27:42;;;;;;;;;;;;;;;19.25;62.33;99062.25;2053744;28;19934;-49
2023/05/05 04:28:42;;;;;;;;;;;;;;;19.25;62.25;99057.72;2055702;28;19976;-48
2023/05/05 04:29:44;;;;;;;;;;;;;;;19.26;62.26;99048.63;2053373;28;20527;-48
2023/05/05 04:30:45;;;;;;;;;;;;;;;19.24;61.99;99053.34;2052658;28;19930;-47
2023/05/05 04:31:46;;;;;;;;;;;;;;;19.24;62.42;99061.41;2054099;28;20667;-46
2023/05/05 04:32:47;;;;;;;;;;;;;;;19.24;62.01;99056.03;2053676;28;19988;-49
2023/05/05 04:33:48;;;;;;;;;;;;;;;19.25;62.47;99057.72;2054439;28;19937;-49
2023/05/05 04:34:49;;;;;;;;;;;;;;;19.23;62.49;99057.09;2052609;28;19933;-48
2023/05/05 04:35:50;;;;;;;;;;;;;;;19.23;62.32;99054.38;2056909;28;19933;-48
2023/05/05 04:36:51;;;;;;;;;;;;;;;19.26;62.30;99059.38;2052831;28;20380;-48
2023/05/05 04:37:53;;;;;;;;;;;;;;;19.25;62.42;99052.34;2053478;28;19930;-47
2023/05/05 04:38:55;;;;;;;;;;;;;;;19.24;62.36;99066.81;2054319;28;19937;-47
2023/05/05 04:39:56;;;;;;;;;;;;;;;19.24;62.35;99061.41;2053058;28;19926;-48
2023/05/05 04:40:57;;;;;;;;;;;;;;;19.24;62.38;99064.09;2056083;28;19929;-47
2023/05/05 04:41:58;;;;;;;;;;;;;;;19.23;62.30;99070.53;2055340;28;19992;-46
2023/05/05 04:42:59;;;;;;;;;;;;;;;19.23;62.07;99065.16;2054336;28;19933;-50
2023/05/05 04:44:00;;;;;;;;;;;;;;;19.24;62.13;99065.97;2055982;28;20008;-49
2023/05/05 04:45:01;;;;;;;;;;;;;;;19.25;62.36;99063.09;2054679;28;19999;-49
2023/05/05 04:46:02;;;;;;;;;;;;;;;19.24;62.44;99072.19;2054989;28;20959;-46
2023/05/05 04:47:03;;;;;;;;;;;;;;;19.23;62.35;99062.47;2053399;28;19988;-48
2023/05/05 04:48:04;;;;;;;;;;;;;;;19.24;62.15;99071.34;2054142;28;19930;-47
2023/05/05 04:49:05;;;;;;;;;;;;;;;19.23;62.38;99069.69;2053468;28;19933;-53
2023/05/05 04:50:07;;;;;;;;;;;;;;;19.22;62.25;99068.84;2054162;28;20349;-45
2023/05/05 04:51:08;;;;;;;;;;;;;;;19.21;62.03;99061.81;2053679;28;20377;-48
2023/05/05 04:52:11;;;;;;;;;;;;;;;19.19;62.41;99070.09;2053315;28;19984;-46
2023/05/05 04:53:12;;;;;;;;;;;;;;;19.18;62.44;99075.66;2054492;28;19949;-52
2023/05/05 04:54:14;;;;;;;;;;;;;;;19.18;62.20;99072.97;2054104;28;19930;-47
2023/05/05 04:55:15;;;;;;;;;;;;;;;19.19;62.47;99074.63;2054827;28;20024;-50
2023/05/05 04:56:16;;;;;;;;;;;;;;;19.22;61.99;99071.53;2054108;28;19929;-48
2023/05/05 04:57:17;;;;;;;;;;;;;;;19.20;62.22;99076.31;2053281;28;20383;-47
2023/05/05 04:58:18;;;;;;;;;;;;;;;19.18;62.45;99079.16;2055572;28;19930;-50
2023/05/05 04:59:19;;;;;;;;;;;;;;;19.22;61.96;99076.91;2055806;28;20186;-53
2023/05/05 05:00:20;;;;;;;;;;;;;;;19.22;62.12;99079.59;2054801;28;20008;-46
2023/05/05 05:01:21;;;;;;;;;;;;;;;19.21;62.26;99077.94;2053902;28;19926;-45
2023/05/05 05:02:22;;;;;;;;;;;;;;;19.20;62.08;99084.38;2055938;28;20012;-51
2023/05/05 05:03:22;;;;;;;;;;;;;;;19.20;62.19;99082.50;2054615;28;19926;-45
2023/05/05 05:04:25;;;;;;;;;;;;;;;19.19;62.27;99083.53;2055000;28;19996;-45
2023/05/05 05:05:26;;;;;;;;;;;;;;;19.17;62.14;99085.59;2055653;28;20881;-50
2023/05/05 05:06:28;;;;;;;;;;;;;;;19.19;62.10;99086.22;2052294;28;19930;-47
2023/05/05 05:07:28;;;;;;;;;;;;;;;19.17;62.08;99082.91;2054967;28;19926;-46
2023/05/05 05:08:30;;;;;;;;;;;;;;;19.19;62.34;99086.22;2054059;28;20052;-47
2023/05/05 05:09:31;;;;;;;;;;;;;;;19.16;62.24;99086.59;2055073;28;19934;-49
2023/05/05 05:10:33;;;;;;;;;;;;;;;19.17;62.32;99090.97;2054266;28;19984;-48
2023/05/05 05:11:33;;;;;;;;;;;;;;;19.19;62.15;99088.91;2053996;28;19930;-45
2023/05/05 05:12:35;;;;;;;;;;;;;;;19.18;62.47;99094.47;2054049;28;20388;-46
2023/05/05 05:13:35;;;;;;;;;;;;;;;19.19;62.45;99096.13;2053440;28;19941;-48
2023/05/05 05:14:37;;;;;;;;;;;;;;;19.16;62.28;99093.84;2053986;28;20356;-46
2023/05/05 05:15:37;;;;;;;;;;;;;;;19.17;62.02;99093.66;2055561;28;19926;-50
2023/05/05 05:16:39;;;;;;;;;;;;;;;19.17;62.19;99092.84;2053197;28;20451;-45
2023/05/05 05:17:39;;;;;;;;;;;;;;;19.14;62.18;99093.22;2054481;28;19938;-48
2023/05/05 05:18:41;;;;;;;;;;;;;;;19.14;62.14;99087.84;2053907;28;20564;-49
2023/05/05 05:19:41;;;;;;;;;;;;;;;19.15;62.15;99095.69;2054618;28;19937;-46
2023/05/05 05:20:43;;;;;;;;;;;;;;;19.15;62.00;99093.00;2053706;28;19941;-46
2023/05/05 05:21:43;;;;;;;;;;;;;;;19.17;62.12;99096.34;2054684;28;19930;-51
2023/05/05 05:22:45;;;;;;;;;;;;;;;19.18;62.09;99100.69;2054718;28;19926;-48
2023/05/05 05:23:46;;;;;;;;;;;;;;;19.19;62.48;99096.13;2053039;28;19937;-50
2023/05/05 05:24:48;;;;;;;;;;;;;;;19.18;62.40;99094.47;2052953;28;20016;-52
2023/05/05 05:25:49;;;;;;;;;;;;;;;19.19;62.55;99099.69;2054795;28;19987;-50
2023/05/05 05:26:51;;;;;;;;;;;;;;;19.20;62.73;99100.50;2054517;28;19930;-47
2023/05/05 05:27:52;;;;;;;;;;;;;;;19.21;62.46;99107.53;2054316;28;19933;-49